Ariel — 4XJK — position and weather

sailwx.info

Track history (hours):
 
Tides and Currents Weather Stations Pressure Air Temp Water Temp Dewpoint Dewpoint Depression Visibility Wind Speed Wind Dir Waves Ship Positions

Ariel

Last reported at 2017-Jan-13 04:34 UTC. Time now 2017-Jan-18 08:08 UTC.
Position N 32°49' E 035°00'.

Length 29 m; draft 3.8 m.

Type: Tug. MMSI: 428000122.

Date/timePositionNaut miles runAvg speedWind from/ knotsBaromVisibWave heightAir tempDewpointWater temp
2017-Jan-13 04:34N 32°49' E 035°00'0 0.0
2017-Jan-13 03:34N 32°49' E 035°00'0 0.0
2017-Jan-13 02:33N 32°49' E 035°00'0 0.0
2017-Jan-13 01:33N 32°49' E 035°00'0 0.0
2017-Jan-13 00:34N 32°49' E 035°00'0 0.0
2017-Jan-12 23:34N 32°49' E 035°00'0 0.0
2017-Jan-12 13:29N 32°49' E 035°00'0 0.0
2017-Jan-12 12:34N 32°49' E 035°00'0 0.0
2017-Jan-12 11:33N 32°49' E 035°00'2 2.0
2017-Jan-12 10:34N 32°51' E 035°02'0 0.0
2017-Jan-12 09:34N 32°51' E 035°02'0 0.5
2017-Jan-12 08:34N 32°51' E 035°01'0 0.5
2017-Jan-12 07:33N 32°51' E 035°01'1 1.3
2017-Jan-12 06:33N 32°49' E 035°00'0 0.0
2017-Jan-12 05:34N 32°49' E 035°00'1 0.6
2017-Jan-12 04:34N 32°49' E 035°01'1 1.1
2017-Jan-12 03:33N 32°49' E 034°60'1 1.0
2017-Jan-12 02:34N 32°49' E 035°01'1 0.5
2017-Jan-12 01:33N 32°49' E 035°00'0 0.0
2017-Jan-12 00:34N 32°49' E 035°00'0 0.0
2017-Jan-11 23:34N 32°49' E 035°00'0 0.0
2017-Jan-11 22:34N 32°49' E 035°00'0 0.2
2017-Jan-11 21:34N 32°49' E 035°00'0 0.5
2017-Jan-11 20:34N 32°49' E 035°01'0 0.3
2017-Jan-11 19:34N 32°49' E 035°00'0 0.0
2017-Jan-11 18:34N 32°49' E 035°00'0 0.0
2017-Jan-11 17:34N 32°49' E 035°00'0 0.0
2017-Jan-11 16:33N 32°49' E 035°00'0 0.3
2017-Jan-11 15:34N 32°49' E 035°01'0 0.4
2017-Jan-11 14:34N 32°49' E 035°00'0 0.1
2017-Jan-11 13:33N 32°49' E 035°00'0 0.0
2017-Jan-11 12:34N 32°49' E 035°00'0 0.0
2017-Jan-11 11:34N 32°49' E 035°00'0 0.0
2017-Jan-11 10:33N 32°49' E 035°00'0 0.0
2017-Jan-11 09:34N 32°49' E 035°00'0 0.0
2017-Jan-11 08:33N 32°49' E 035°00'0 0.0
2017-Jan-11 07:34N 32°49' E 035°00'0 0.0
2017-Jan-11 06:34N 32°49' E 035°00'0 0.1
2017-Jan-11 05:34N 32°49' E 035°00'0 0.2
2017-Jan-11 04:33N 32°49' E 035°01'0 0.1
2017-Jan-11 03:34N 32°49' E 035°01'0 0.1
2017-Jan-11 02:34N 32°49' E 035°00'0 0.0
2017-Jan-11 01:34N 32°49' E 035°00'0 0.0
2017-Jan-11 00:34N 32°49' E 035°00'0 0.0
2017-Jan-10 23:34N 32°49' E 035°00'0 0.0
2017-Jan-10 22:34N 32°49' E 035°00'0 0.2
2017-Jan-10 21:33N 32°49' E 035°01'0 0.1
2017-Jan-10 20:33N 32°49' E 035°01'1 0.8
2017-Jan-10 19:33N 32°49' E 035°02'1 1.1
2017-Jan-10 18:33N 32°49' E 035°00'0 0.0
2017-Jan-10 17:33N 32°49' E 035°00'0 0.0
2017-Jan-10 16:33N 32°49' E 035°00'0 0.0
2017-Jan-10 15:33N 32°49' E 035°00'0 0.1
2017-Jan-10 14:34N 32°49' E 035°00'0 0.1
2017-Jan-10 13:33N 32°49' E 035°00'0 0.0
2017-Jan-10 12:33N 32°49' E 035°00'0 0.0
2017-Jan-10 11:33N 32°49' E 035°00'0 0.4
2017-Jan-10 10:33N 32°49' E 035°01'1 0.6
2017-Jan-10 09:34N 32°49' E 035°01'1 0.8
2017-Jan-10 08:34N 32°49' E 035°01'0 0.2
2017-Jan-10 07:34N 32°49' E 035°00'0 0.1
2017-Jan-10 06:33N 32°49' E 035°00'0 0.0
2017-Jan-10 05:33N 32°49' E 035°00'0 0.0
2017-Jan-10 04:33N 32°49' E 035°00'0 0.0
2017-Jan-10 03:33N 32°49' E 035°00'0 0.0
2017-Jan-10 02:33N 32°49' E 035°00'0 0.0
2017-Jan-10 01:33N 32°49' E 035°00'0 0.0
2017-Jan-10 00:33N 32°49' E 035°00'0 0.0
2017-Jan-09 23:33N 32°49' E 035°00'0 0.0
2017-Jan-09 22:33N 32°49' E 035°00'0 0.2
2017-Jan-09 21:34N 32°49' E 035°01'0 0.1
2017-Jan-09 20:34N 32°49' E 035°01'0 0.1
2017-Jan-09 19:33N 32°49' E 035°01'0 0.3
2017-Jan-09 18:34N 32°49' E 035°00'0 0.1
2017-Jan-09 17:33N 32°49' E 035°00'0 0.0
2017-Jan-09 16:33N 32°49' E 035°00'0 0.0
2017-Jan-09 15:33N 32°49' E 035°00'0 0.0
2017-Jan-09 14:33N 32°49' E 035°00'0 0.0
2017-Jan-09 13:33N 32°49' E 035°00'0 0.0
2017-Jan-09 12:33N 32°49' E 035°00'0 0.0
2017-Jan-09 11:33N 32°49' E 035°00'0 0.0
2017-Jan-09 10:33N 32°49' E 035°00'0 0.0
2017-Jan-09 09:33N 32°49' E 035°00'0 0.0
2017-Jan-09 08:33N 32°49' E 035°00'0 0.0
2017-Jan-09 07:33N 32°49' E 035°00'0 0.0
2017-Jan-09 06:33N 32°49' E 035°00'0 0.0
2017-Jan-09 05:33N 32°49' E 035°00'0 0.0
2017-Jan-09 04:33N 32°49' E 035°00'0 0.0
2017-Jan-09 03:33N 32°49' E 035°00'0 0.0
2017-Jan-09 02:33N 32°49' E 035°00'0 0.0
2017-Jan-09 01:33N 32°49' E 035°00'0 0.0
2017-Jan-09 00:33N 32°49' E 035°00'0 0.0
2017-Jan-08 23:34N 32°49' E 035°00'0 0.0
2017-Jan-08 22:34N 32°49' E 035°00'0 0.0
2017-Jan-08 21:34N 32°49' E 035°00'0 0.0
2017-Jan-08 20:33N 32°49' E 035°00'0 0.0
2017-Jan-08 19:34N 32°49' E 035°00'0 0.0
2017-Jan-08 18:34N 32°49' E 035°00'0 0.0
2017-Jan-08 17:34N 32°49' E 035°00'0 0.0
2017-Jan-08 16:34N 32°49' E 035°00'0 0.0
2017-Jan-08 15:34N 32°49' E 035°00'0 0.0
2017-Jan-08 14:33N 32°49' E 035°00'0 0.0
2017-Jan-08 13:33N 32°49' E 035°00'0 0.0
2017-Jan-08 12:33N 32°49' E 035°00'0 0.0
2017-Jan-08 11:34N 32°49' E 035°00'0 0.0
2017-Jan-08 10:34N 32°49' E 035°00'0 0.0
2017-Jan-08 09:34N 32°49' E 035°00'0 0.0
2017-Jan-08 08:34N 32°49' E 035°00'0 0.0
2017-Jan-08 07:34N 32°49' E 035°00'0 0.0
2017-Jan-08 06:33N 32°49' E 035°00'0 0.0
2017-Jan-08 05:34N 32°49' E 035°00'0 0.0
2017-Jan-08 04:34N 32°49' E 035°00'0 0.0
2017-Jan-08 03:34N 32°49' E 035°00'0 0.0
2017-Jan-08 02:34N 32°49' E 035°00'0 0.0
2017-Jan-08 01:34N 32°49' E 035°00'0 0.0
2017-Jan-08 00:34N 32°49' E 035°00'0 0.0
2017-Jan-07 23:34N 32°49' E 035°00'0 0.1
2017-Jan-07 22:34N 32°49' E 035°01'0 0.1
2017-Jan-07 21:34N 32°49' E 035°00'0 0.0
2017-Jan-07 20:34N 32°49' E 035°00'0 0.3
2017-Jan-07 19:34N 32°49' E 035°01'0 0.3
2017-Jan-07 18:33N 32°49' E 035°00'0 0.0
2017-Jan-07 17:33N 32°49' E 035°00'0 0.0
2017-Jan-07 16:34N 32°49' E 035°00'0 0.0
2017-Jan-07 15:34N 32°49' E 035°00'0 0.0
2017-Jan-07 14:33N 32°49' E 035°00'0 0.0
2017-Jan-07 13:33N 32°49' E 035°00'0 0.0
2017-Jan-07 12:34N 32°49' E 035°00'0 0.0
2017-Jan-07 11:34N 32°49' E 035°00'0 0.0
2017-Jan-07 10:33N 32°49' E 035°00'0 0.0
2017-Jan-07 09:33N 32°49' E 035°00'0 0.0
2017-Jan-07 08:34N 32°49' E 035°00'0 0.0
2017-Jan-07 07:34N 32°49' E 035°00'0 0.0
2017-Jan-07 06:34N 32°49' E 035°00'0 0.0
2017-Jan-07 05:33N 32°49' E 035°00'0 0.0
2017-Jan-07 04:34N 32°49' E 035°00'0 0.0
2017-Jan-07 03:34N 32°49' E 035°00'0 0.0
2017-Jan-07 02:34N 32°49' E 035°00'0 0.0
2017-Jan-07 01:34N 32°49' E 035°00'0 0.0
2017-Jan-07 00:34N 32°49' E 035°00'0 0.0
2017-Jan-06 23:34N 32°49' E 035°00'0 0.0
2017-Jan-06 22:34N 32°49' E 035°00'0 0.0
2017-Jan-06 21:34N 32°49' E 035°00'0 0.0
2017-Jan-06 20:33N 32°49' E 035°00'0 0.0
2017-Jan-06 19:34N 32°49' E 035°00'0 0.0
2017-Jan-06 18:33N 32°49' E 035°00'0 0.0
2017-Jan-06 17:34N 32°49' E 035°00'0 0.0
2017-Jan-06 16:33N 32°49' E 035°00'0 0.0
2017-Jan-06 15:33N 32°49' E 035°00'0 0.0
2017-Jan-06 14:33N 32°49' E 035°00'1 1.3
2017-Jan-06 13:33N 32°49' E 035°02'1 1.3
2017-Jan-06 12:33N 32°49' E 035°00'0 0.0
2017-Jan-06 11:34N 32°49' E 035°00'0 0.0
2017-Jan-06 10:34N 32°49' E 035°00'1 0.6
2017-Jan-06 09:34N 32°49' E 035°01'1 0.6
2017-Jan-06 08:34N 32°49' E 035°00'0 0.0
2017-Jan-06 07:34N 32°49' E 035°00'0 0.0
2017-Jan-06 06:33N 32°49' E 035°00'0 0.0
2017-Jan-06 05:34N 32°49' E 035°00'0 0.0
2017-Jan-06 04:34N 32°49' E 035°00'0 0.0
2017-Jan-06 03:34N 32°49' E 035°00'0 0.0
2017-Jan-06 02:34N 32°49' E 035°00'0 0.0
2017-Jan-06 01:34N 32°49' E 035°00'0 0.0
2017-Jan-06 00:34N 32°49' E 035°00'0 0.0
2017-Jan-05 23:34N 32°49' E 035°00'0 0.0
2017-Jan-05 22:33N 32°49' E 035°00'0 0.0
2017-Jan-05 21:34N 32°49' E 035°00'0 0.1
2017-Jan-05 20:33N 32°49' E 035°00'0 0.1
2017-Jan-05 19:34N 32°49' E 035°01'0 0.1
2017-Jan-05 18:33N 32°49' E 035°00'0 0.0
2017-Jan-05 17:34N 32°49' E 035°00'0 0.0
2017-Jan-05 16:34N 32°49' E 035°00'0 0.0
2017-Jan-05 15:33N 32°49' E 035°00'0 0.0
2017-Jan-05 14:34N 32°49' E 035°00'0 0.5
2017-Jan-05 13:34N 32°49' E 035°01'0 0.2
2017-Jan-05 12:34N 32°50' E 035°01'1 1.1
2017-Jan-05 11:34N 32°49' E 035°02'1 1.4
2017-Jan-05 10:33N 32°49' E 035°00'0 0.3
2017-Jan-05 09:34N 32°49' E 035°01'0 0.3
2017-Jan-05 08:34N 32°49' E 035°00'0 0.0
2017-Jan-05 07:34N 32°49' E 035°00'0 0.0
2017-Jan-05 06:33N 32°49' E 035°00'0 0.0
2017-Jan-05 05:34N 32°49' E 035°00'0 0.0
2017-Jan-05 04:34N 32°49' E 035°00'0 0.2
2017-Jan-05 03:34N 32°49' E 035°01'0 0.2
2017-Jan-05 02:34N 32°49' E 035°00'0 0.0
2017-Jan-05 01:34N 32°49' E 035°00'0 0.0
2017-Jan-05 00:34N 32°49' E 035°00'0 0.2
2017-Jan-04 23:34N 32°49' E 035°00'1 0.8
2017-Jan-04 22:34N 32°50' E 035°01'1 0.6
2017-Jan-04 21:33N 32°49' E 035°00'0 0.0
2017-Jan-04 20:34N 32°49' E 035°00'0 0.0
2017-Jan-04 19:33N 32°49' E 035°00'0 0.3
2017-Jan-04 18:33N 32°49' E 035°01'0 0.3
2017-Jan-04 17:34N 32°49' E 035°00'0 0.0
2017-Jan-04 16:34N 32°49' E 035°00'0 0.0
2017-Jan-04 15:34N 32°49' E 035°00'0 0.0
2017-Jan-04 14:34N 32°49' E 035°00'1 0.5
2017-Jan-04 13:34N 32°50' E 035°01'1 0.6
2017-Jan-04 12:34N 32°49' E 035°01'0 0.4
2017-Jan-04 11:34N 32°49' E 035°02'1 1.2
2017-Jan-04 10:33N 32°49' E 035°00'0 0.0
2017-Jan-04 09:34N 32°49' E 035°00'1 1.3
2017-Jan-04 08:33N 32°49' E 035°02'0 0.2
2017-Jan-04 07:33N 32°49' E 035°02'1 1.1
2017-Jan-04 06:34N 32°49' E 035°00'0 0.4
2017-Jan-04 05:34N 32°49' E 035°00'0 0.4
2017-Jan-04 04:34N 32°49' E 035°00'0 0.0
2017-Jan-04 03:34N 32°49' E 035°00'0 0.0
2017-Jan-04 02:34N 32°49' E 035°00'0 0.0
2017-Jan-04 01:34N 32°49' E 035°00'0 0.0
2017-Jan-04 00:34N 32°49' E 035°00'0 0.0
2017-Jan-03 23:34N 32°49' E 035°00'0 0.0
2017-Jan-03 22:34N 32°49' E 035°00'0 0.1
2017-Jan-03 21:34N 32°49' E 035°00'0 0.2
2017-Jan-03 20:34N 32°49' E 035°00'0 0.4
2017-Jan-03 19:34N 32°49' E 035°01'0 0.2
2017-Jan-03 18:34N 32°49' E 035°00'0 0.0
2017-Jan-03 17:34N 32°49' E 035°00'0 0.0
2017-Jan-03 16:34N 32°49' E 035°00'0 0.0
2017-Jan-03 15:33N 32°49' E 035°00'0 0.0
2017-Jan-03 14:33N 32°49' E 035°00'0 0.0
2017-Jan-03 13:33N 32°49' E 035°00'0 0.1
2017-Jan-03 12:34N 32°49' E 035°01'1 1.4
2017-Jan-03 11:34N 32°49' E 035°02'1 1.5
2017-Jan-03 10:33N 32°49' E 035°00'0 0.0
2017-Jan-03 09:33N 32°49' E 035°00'0 0.0
2017-Jan-03 08:34N 32°49' E 035°00'0 0.0
2017-Jan-03 07:33N 32°49' E 035°00'0 0.0
2017-Jan-03 06:34N 32°49' E 035°00'0 0.0
2017-Jan-03 05:33N 32°49' E 035°00'  
Track history (hours):
 
Tides and Currents Weather Stations Pressure Air Temp Water Temp Dewpoint Dewpoint Depression Visibility Wind Speed Wind Dir Waves Ship Positions

Ariel

Last reported at 2017-Jan-13 04:34 UTC. Time now 2017-Jan-18 08:08 UTC.
Position N 32°49' E 035°00'.

Length 29 m; draft 3.8 m.

Type: Tug. MMSI: 428000122.

Date/timePositionNaut miles runAvg speedWind from/ knotsBaromVisibWave heightAir tempDewpointWater temp
2017-Jan-13 04:34N 32°49' E 035°00'0 0.0
2017-Jan-13 03:34N 32°49' E 035°00'0 0.0
2017-Jan-13 02:33N 32°49' E 035°00'0 0.0
2017-Jan-13 01:33N 32°49' E 035°00'0 0.0
2017-Jan-13 00:34N 32°49' E 035°00'0 0.0
2017-Jan-12 23:34N 32°49' E 035°00'0 0.0
2017-Jan-12 13:29N 32°49' E 035°00'0 0.0
2017-Jan-12 12:34N 32°49' E 035°00'0 0.0
2017-Jan-12 11:33N 32°49' E 035°00'2 2.0
2017-Jan-12 10:34N 32°51' E 035°02'0 0.0
2017-Jan-12 09:34N 32°51' E 035°02'0 0.5
2017-Jan-12 08:34N 32°51' E 035°01'0 0.5
2017-Jan-12 07:33N 32°51' E 035°01'1 1.3
2017-Jan-12 06:33N 32°49' E 035°00'0 0.0
2017-Jan-12 05:34N 32°49' E 035°00'1 0.6
2017-Jan-12 04:34N 32°49' E 035°01'1 1.1
2017-Jan-12 03:33N 32°49' E 034°60'1 1.0
2017-Jan-12 02:34N 32°49' E 035°01'1 0.5
2017-Jan-12 01:33N 32°49' E 035°00'0 0.0
2017-Jan-12 00:34N 32°49' E 035°00'0 0.0
2017-Jan-11 23:34N 32°49' E 035°00'0 0.0
2017-Jan-11 22:34N 32°49' E 035°00'0 0.2
2017-Jan-11 21:34N 32°49' E 035°00'0 0.5
2017-Jan-11 20:34N 32°49' E 035°01'0 0.3
2017-Jan-11 19:34N 32°49' E 035°00'0 0.0
2017-Jan-11 18:34N 32°49' E 035°00'0 0.0
2017-Jan-11 17:34N 32°49' E 035°00'0 0.0
2017-Jan-11 16:33N 32°49' E 035°00'0 0.3
2017-Jan-11 15:34N 32°49' E 035°01'0 0.4
2017-Jan-11 14:34N 32°49' E 035°00'0 0.1
2017-Jan-11 13:33N 32°49' E 035°00'0 0.0
2017-Jan-11 12:34N 32°49' E 035°00'0 0.0
2017-Jan-11 11:34N 32°49' E 035°00'0 0.0
2017-Jan-11 10:33N 32°49' E 035°00'0 0.0
2017-Jan-11 09:34N 32°49' E 035°00'0 0.0
2017-Jan-11 08:33N 32°49' E 035°00'0 0.0
2017-Jan-11 07:34N 32°49' E 035°00'0 0.0
2017-Jan-11 06:34N 32°49' E 035°00'0 0.1
2017-Jan-11 05:34N 32°49' E 035°00'0 0.2
2017-Jan-11 04:33N 32°49' E 035°01'0 0.1
2017-Jan-11 03:34N 32°49' E 035°01'0 0.1
2017-Jan-11 02:34N 32°49' E 035°00'0 0.0
2017-Jan-11 01:34N 32°49' E 035°00'0 0.0
2017-Jan-11 00:34N 32°49' E 035°00'0 0.0
2017-Jan-10 23:34N 32°49' E 035°00'0 0.0
2017-Jan-10 22:34N 32°49' E 035°00'0 0.2
2017-Jan-10 21:33N 32°49' E 035°01'0 0.1
2017-Jan-10 20:33N 32°49' E 035°01'1 0.8
2017-Jan-10 19:33N 32°49' E 035°02'1 1.1
2017-Jan-10 18:33N 32°49' E 035°00'0 0.0
2017-Jan-10 17:33N 32°49' E 035°00'0 0.0
2017-Jan-10 16:33N 32°49' E 035°00'0 0.0
2017-Jan-10 15:33N 32°49' E 035°00'0 0.1
2017-Jan-10 14:34N 32°49' E 035°00'0 0.1
2017-Jan-10 13:33N 32°49' E 035°00'0 0.0
2017-Jan-10 12:33N 32°49' E 035°00'0 0.0
2017-Jan-10 11:33N 32°49' E 035°00'0 0.4
2017-Jan-10 10:33N 32°49' E 035°01'1 0.6
2017-Jan-10 09:34N 32°49' E 035°01'1 0.8
2017-Jan-10 08:34N 32°49' E 035°01'0 0.2
2017-Jan-10 07:34N 32°49' E 035°00'0 0.1
2017-Jan-10 06:33N 32°49' E 035°00'0 0.0
2017-Jan-10 05:33N 32°49' E 035°00'0 0.0
2017-Jan-10 04:33N 32°49' E 035°00'0 0.0
2017-Jan-10 03:33N 32°49' E 035°00'0 0.0
2017-Jan-10 02:33N 32°49' E 035°00'0 0.0
2017-Jan-10 01:33N 32°49' E 035°00'0 0.0
2017-Jan-10 00:33N 32°49' E 035°00'0 0.0
2017-Jan-09 23:33N 32°49' E 035°00'0 0.0
2017-Jan-09 22:33N 32°49' E 035°00'0 0.2
2017-Jan-09 21:34N 32°49' E 035°01'0 0.1
2017-Jan-09 20:34N 32°49' E 035°01'0 0.1
2017-Jan-09 19:33N 32°49' E 035°01'0 0.3
2017-Jan-09 18:34N 32°49' E 035°00'0 0.1
2017-Jan-09 17:33N 32°49' E 035°00'0 0.0
2017-Jan-09 16:33N 32°49' E 035°00'0 0.0
2017-Jan-09 15:33N 32°49' E 035°00'0 0.0
2017-Jan-09 14:33N 32°49' E 035°00'0 0.0
2017-Jan-09 13:33N 32°49' E 035°00'0 0.0
2017-Jan-09 12:33N 32°49' E 035°00'0 0.0
2017-Jan-09 11:33N 32°49' E 035°00'0 0.0
2017-Jan-09 10:33N 32°49' E 035°00'0 0.0
2017-Jan-09 09:33N 32°49' E 035°00'0 0.0
2017-Jan-09 08:33N 32°49' E 035°00'0 0.0
2017-Jan-09 07:33N 32°49' E 035°00'0 0.0
2017-Jan-09 06:33N 32°49' E 035°00'0 0.0
2017-Jan-09 05:33N 32°49' E 035°00'0 0.0
2017-Jan-09 04:33N 32°49' E 035°00'0 0.0
2017-Jan-09 03:33N 32°49' E 035°00'0 0.0
2017-Jan-09 02:33N 32°49' E 035°00'0 0.0
2017-Jan-09 01:33N 32°49' E 035°00'0 0.0
2017-Jan-09 00:33N 32°49' E 035°00'0 0.0
2017-Jan-08 23:34N 32°49' E 035°00'0 0.0
2017-Jan-08 22:34N 32°49' E 035°00'0 0.0
2017-Jan-08 21:34N 32°49' E 035°00'0 0.0
2017-Jan-08 20:33N 32°49' E 035°00'0 0.0
2017-Jan-08 19:34N 32°49' E 035°00'0 0.0
2017-Jan-08 18:34N 32°49' E 035°00'0 0.0
2017-Jan-08 17:34N 32°49' E 035°00'0 0.0
2017-Jan-08 16:34N 32°49' E 035°00'0 0.0
2017-Jan-08 15:34N 32°49' E 035°00'0 0.0
2017-Jan-08 14:33N 32°49' E 035°00'0 0.0
2017-Jan-08 13:33N 32°49' E 035°00'0 0.0
2017-Jan-08 12:33N 32°49' E 035°00'0 0.0
2017-Jan-08 11:34N 32°49' E 035°00'0 0.0
2017-Jan-08 10:34N 32°49' E 035°00'0 0.0
2017-Jan-08 09:34N 32°49' E 035°00'0 0.0
2017-Jan-08 08:34N 32°49' E 035°00'0 0.0
2017-Jan-08 07:34N 32°49' E 035°00'0 0.0
2017-Jan-08 06:33N 32°49' E 035°00'0 0.0
2017-Jan-08 05:34N 32°49' E 035°00'0 0.0
2017-Jan-08 04:34N 32°49' E 035°00'0 0.0
2017-Jan-08 03:34N 32°49' E 035°00'0 0.0
2017-Jan-08 02:34N 32°49' E 035°00'0 0.0
2017-Jan-08 01:34N 32°49' E 035°00'0 0.0
2017-Jan-08 00:34N 32°49' E 035°00'0 0.0
2017-Jan-07 23:34N 32°49' E 035°00'0 0.1
2017-Jan-07 22:34N 32°49' E 035°01'0 0.1
2017-Jan-07 21:34N 32°49' E 035°00'0 0.0
2017-Jan-07 20:34N 32°49' E 035°00'0 0.3
2017-Jan-07 19:34N 32°49' E 035°01'0 0.3
2017-Jan-07 18:33N 32°49' E 035°00'0 0.0
2017-Jan-07 17:33N 32°49' E 035°00'0 0.0
2017-Jan-07 16:34N 32°49' E 035°00'0 0.0
2017-Jan-07 15:34N 32°49' E 035°00'0 0.0
2017-Jan-07 14:33N 32°49' E 035°00'0 0.0
2017-Jan-07 13:33N 32°49' E 035°00'0 0.0
2017-Jan-07 12:34N 32°49' E 035°00'0 0.0
2017-Jan-07 11:34N 32°49' E 035°00'0 0.0
2017-Jan-07 10:33N 32°49' E 035°00'0 0.0
2017-Jan-07 09:33N 32°49' E 035°00'0 0.0
2017-Jan-07 08:34N 32°49' E 035°00'0 0.0
2017-Jan-07 07:34N 32°49' E 035°00'0 0.0
2017-Jan-07 06:34N 32°49' E 035°00'0 0.0
2017-Jan-07 05:33N 32°49' E 035°00'0 0.0
2017-Jan-07 04:34N 32°49' E 035°00'0 0.0
2017-Jan-07 03:34N 32°49' E 035°00'0 0.0
2017-Jan-07 02:34N 32°49' E 035°00'0 0.0
2017-Jan-07 01:34N 32°49' E 035°00'0 0.0
2017-Jan-07 00:34N 32°49' E 035°00'0 0.0
2017-Jan-06 23:34N 32°49' E 035°00'0 0.0
2017-Jan-06 22:34N 32°49' E 035°00'0 0.0
2017-Jan-06 21:34N 32°49' E 035°00'0 0.0
2017-Jan-06 20:33N 32°49' E 035°00'0 0.0
2017-Jan-06 19:34N 32°49' E 035°00'0 0.0
2017-Jan-06 18:33N 32°49' E 035°00'0 0.0
2017-Jan-06 17:34N 32°49' E 035°00'0 0.0
2017-Jan-06 16:33N 32°49' E 035°00'0 0.0
2017-Jan-06 15:33N 32°49' E 035°00'0 0.0
2017-Jan-06 14:33N 32°49' E 035°00'1 1.3
2017-Jan-06 13:33N 32°49' E 035°02'1 1.3
2017-Jan-06 12:33N 32°49' E 035°00'0 0.0
2017-Jan-06 11:34N 32°49' E 035°00'0 0.0
2017-Jan-06 10:34N 32°49' E 035°00'1 0.6
2017-Jan-06 09:34N 32°49' E 035°01'1 0.6
2017-Jan-06 08:34N 32°49' E 035°00'0 0.0
2017-Jan-06 07:34N 32°49' E 035°00'0 0.0
2017-Jan-06 06:33N 32°49' E 035°00'0 0.0
2017-Jan-06 05:34N 32°49' E 035°00'0 0.0
2017-Jan-06 04:34N 32°49' E 035°00'0 0.0
2017-Jan-06 03:34N 32°49' E 035°00'0 0.0
2017-Jan-06 02:34N 32°49' E 035°00'0 0.0
2017-Jan-06 01:34N 32°49' E 035°00'0 0.0
2017-Jan-06 00:34N 32°49' E 035°00'0 0.0
2017-Jan-05 23:34N 32°49' E 035°00'0 0.0
2017-Jan-05 22:33N 32°49' E 035°00'0 0.0
2017-Jan-05 21:34N 32°49' E 035°00'0 0.1
2017-Jan-05 20:33N 32°49' E 035°00'0 0.1
2017-Jan-05 19:34N 32°49' E 035°01'0 0.1
2017-Jan-05 18:33N 32°49' E 035°00'0 0.0
2017-Jan-05 17:34N 32°49' E 035°00'0 0.0
2017-Jan-05 16:34N 32°49' E 035°00'0 0.0
2017-Jan-05 15:33N 32°49' E 035°00'0 0.0
2017-Jan-05 14:34N 32°49' E 035°00'0 0.5
2017-Jan-05 13:34N 32°49' E 035°01'0 0.2
2017-Jan-05 12:34N 32°50' E 035°01'1 1.1
2017-Jan-05 11:34N 32°49' E 035°02'1 1.4
2017-Jan-05 10:33N 32°49' E 035°00'0 0.3
2017-Jan-05 09:34N 32°49' E 035°01'0 0.3
2017-Jan-05 08:34N 32°49' E 035°00'0 0.0
2017-Jan-05 07:34N 32°49' E 035°00'0 0.0
2017-Jan-05 06:33N 32°49' E 035°00'0 0.0
2017-Jan-05 05:34N 32°49' E 035°00'0 0.0
2017-Jan-05 04:34N 32°49' E 035°00'0 0.2
2017-Jan-05 03:34N 32°49' E 035°01'0 0.2
2017-Jan-05 02:34N 32°49' E 035°00'0 0.0
2017-Jan-05 01:34N 32°49' E 035°00'0 0.0
2017-Jan-05 00:34N 32°49' E 035°00'0 0.2
2017-Jan-04 23:34N 32°49' E 035°00'1 0.8
2017-Jan-04 22:34N 32°50' E 035°01'1 0.6
2017-Jan-04 21:33N 32°49' E 035°00'0 0.0
2017-Jan-04 20:34N 32°49' E 035°00'0 0.0
2017-Jan-04 19:33N 32°49' E 035°00'0 0.3
2017-Jan-04 18:33N 32°49' E 035°01'0 0.3
2017-Jan-04 17:34N 32°49' E 035°00'0 0.0
2017-Jan-04 16:34N 32°49' E 035°00'0 0.0
2017-Jan-04 15:34N 32°49' E 035°00'0 0.0
2017-Jan-04 14:34N 32°49' E 035°00'1 0.5
2017-Jan-04 13:34N 32°50' E 035°01'1 0.6
2017-Jan-04 12:34N 32°49' E 035°01'0 0.4
2017-Jan-04 11:34N 32°49' E 035°02'1 1.2
2017-Jan-04 10:33N 32°49' E 035°00'0 0.0
2017-Jan-04 09:34N 32°49' E 035°00'1 1.3
2017-Jan-04 08:33N 32°49' E 035°02'0 0.2
2017-Jan-04 07:33N 32°49' E 035°02'1 1.1
2017-Jan-04 06:34N 32°49' E 035°00'0 0.4
2017-Jan-04 05:34N 32°49' E 035°00'0 0.4
2017-Jan-04 04:34N 32°49' E 035°00'0 0.0
2017-Jan-04 03:34N 32°49' E 035°00'0 0.0
2017-Jan-04 02:34N 32°49' E 035°00'0 0.0
2017-Jan-04 01:34N 32°49' E 035°00'0 0.0
2017-Jan-04 00:34N 32°49' E 035°00'0 0.0
2017-Jan-03 23:34N 32°49' E 035°00'0 0.0
2017-Jan-03 22:34N 32°49' E 035°00'0 0.1
2017-Jan-03 21:34N 32°49' E 035°00'0 0.2
2017-Jan-03 20:34N 32°49' E 035°00'0 0.4
2017-Jan-03 19:34N 32°49' E 035°01'0 0.2
2017-Jan-03 18:34N 32°49' E 035°00'0 0.0
2017-Jan-03 17:34N 32°49' E 035°00'0 0.0
2017-Jan-03 16:34N 32°49' E 035°00'0 0.0
2017-Jan-03 15:33N 32°49' E 035°00'0 0.0
2017-Jan-03 14:33N 32°49' E 035°00'0 0.0
2017-Jan-03 13:33N 32°49' E 035°00'0 0.1
2017-Jan-03 12:34N 32°49' E 035°01'1 1.4
2017-Jan-03 11:34N 32°49' E 035°02'1 1.5
2017-Jan-03 10:33N 32°49' E 035°00'0 0.0
2017-Jan-03 09:33N 32°49' E 035°00'0 0.0
2017-Jan-03 08:34N 32°49' E 035°00'0 0.0
2017-Jan-03 07:33N 32°49' E 035°00'0 0.0
2017-Jan-03 06:34N 32°49' E 035°00'0 0.0
2017-Jan-03 05:33N 32°49' E 035°00'  

Dump ship's entire track history